Phillipsville, Pennsylvania
Current Conditions -  °F | °C
As of 6:51 PM on Sunday 21 Dec 2014 (Local Time) from KERI Reporting Station
Overcast Overcast  
Wind Chill: 26°   Ceiling: 2800
Heat Index: 32°   Visibility: 10mi
Dew Point: 20°   Wind: 6mph
Humidity: 61%   Direction: 140°SE
Pressure: 30.28"   Gusts: NA
Location:  42.0384°N, 79.8318°W
Report Text: KERI 212351Z 14005KT 10SM OVC028 00/M07 A3028 RMK AO2 SLP264 T00001067 10006 20000 52007
Loading
Personal Weather Stations






























Interactive Weather Map New forecast layout! Learn more

10-Day Weather Forecast

Advertisements
Track Severe Weather on mobile